sensor_id;sensor_type;location;lat;lon;timestamp;pressure;altitude;pressure_sealevel;temperature;humidity
79077;BME280;68477;42.698;23.342;2023-03-31T00:02:02;95357.41;;;8.73;52.96
79077;BME280;68477;42.698;23.342;2023-03-31T00:04:31;95354.72;;;8.65;53.57
79077;BME280;68477;42.698;23.342;2023-03-31T00:06:58;95368.66;;;8.66;52.87
79077;BME280;68477;42.698;23.342;2023-03-31T00:09:24;95351.94;;;8.67;53.15
79077;BME280;68477;42.698;23.342;2023-03-31T00:11:50;95357.84;;;8.69;52.76
79077;BME280;68477;42.698;23.342;2023-03-31T00:14:18;95355.47;;;8.92;51.70
79077;BME280;68477;42.698;23.342;2023-03-31T00:16:44;95344.09;;;8.67;53.54
79077;BME280;68477;42.698;23.342;2023-03-31T00:19:10;95347.72;;;8.82;53.09
79077;BME280;68477;42.698;23.342;2023-03-31T00:21:45;95343.63;;;8.80;52.95
79077;BME280;68477;42.698;23.342;2023-03-31T00:24:11;95345.31;;;8.89;53.04
79077;BME280;68477;42.698;23.342;2023-03-31T00:26:37;95340.72;;;8.91;53.18
79077;BME280;68477;42.698;23.342;2023-03-31T00:29:07;95340.38;;;8.43;54.18
79077;BME280;68477;42.698;23.342;2023-03-31T00:31:32;95340.19;;;8.79;53.06
79077;BME280;68477;42.698;23.342;2023-03-31T00:33:58;95339.28;;;8.54;54.89
79077;BME280;68477;42.698;23.342;2023-03-31T00:36:24;95346.03;;;8.65;53.29
79077;BME280;68477;42.698;23.342;2023-03-31T00:38:53;95345.38;;;8.63;54.31
79077;BME280;68477;42.698;23.342;2023-03-31T00:41:20;95335.91;;;8.70;54.17
79077;BME280;68477;42.698;23.342;2023-03-31T00:46:37;95329.56;;;8.89;54.15
79077;BME280;68477;42.698;23.342;2023-03-31T00:49:10;95333.88;;;8.98;53.51
79077;BME280;68477;42.698;23.342;2023-03-31T00:51:38;95326.25;;;8.79;53.30
79077;BME280;68477;42.698;23.342;2023-03-31T00:54:05;95321.25;;;9.01;53.01
79077;BME280;68477;42.698;23.342;2023-03-31T00:56:33;95320.38;;;8.93;52.79
79077;BME280;68477;42.698;23.342;2023-03-31T00:59:03;95311.41;;;9.03;53.48
79077;BME280;68477;42.698;23.342;2023-03-31T01:01:32;95311.47;;;8.69;54.16
79077;BME280;68477;42.698;23.342;2023-03-31T01:04:01;95306.53;;;8.58;54.58
79077;BME280;68477;42.698;23.342;2023-03-31T01:06:26;95308.09;;;8.85;54.75
79077;BME280;68477;42.698;23.342;2023-03-31T01:08:55;95308.28;;;9.00;55.53
79077;BME280;68477;42.698;23.342;2023-03-31T01:11:23;95300.06;;;8.87;55.99
79077;BME280;68477;42.698;23.342;2023-03-31T01:13:53;95311.44;;;8.53;57.57
79077;BME280;68477;42.698;23.342;2023-03-31T01:16:20;95311.22;;;8.38;58.72
79077;BME280;68477;42.698;23.342;2023-03-31T01:18:46;95314.75;;;8.71;56.33
79077;BME280;68477;42.698;23.342;2023-03-31T01:27:32;95314.53;;;8.99;54.67
79077;BME280;68477;42.698;23.342;2023-03-31T01:46:00;95333.50;;;8.85;55.93
79077;BME280;68477;42.698;23.342;2023-03-31T01:51:55;95339.16;;;8.64;58.19
79077;BME280;68477;42.698;23.342;2023-03-31T01:57:00;95337.38;;;8.64;57.57
79077;BME280;68477;42.698;23.342;2023-03-31T02:05:12;95355.19;;;8.53;56.33
79077;BME280;68477;42.698;23.342;2023-03-31T02:07:48;95348.59;;;8.49;57.57
79077;BME280;68477;42.698;23.342;2023-03-31T02:10:17;95347.50;;;8.33;56.25
79077;BME280;68477;42.698;23.342;2023-03-31T02:12:44;95351.13;;;8.66;56.00
79077;BME280;68477;42.698;23.342;2023-03-31T02:15:13;95351.63;;;8.70;56.20
79077;BME280;68477;42.698;23.342;2023-03-31T02:17:44;95358.38;;;8.81;54.88
79077;BME280;68477;42.698;23.342;2023-03-31T02:20:14;95364.97;;;8.93;56.32
79077;BME280;68477;42.698;23.342;2023-03-31T02:22:48;95367.31;;;9.04;55.73
79077;BME280;68477;42.698;23.342;2023-03-31T02:25:17;95378.41;;;8.90;59.22
79077;BME280;68477;42.698;23.342;2023-03-31T02:27:49;95378.47;;;8.98;59.63
79077;BME280;68477;42.698;23.342;2023-03-31T02:30:16;95376.00;;;8.96;61.54
79077;BME280;68477;42.698;23.342;2023-03-31T02:32:43;95376.53;;;9.08;61.15
79077;BME280;68477;42.698;23.342;2023-03-31T02:35:14;95384.50;;;8.90;61.73
79077;BME280;68477;42.698;23.342;2023-03-31T02:37:41;95389.13;;;8.62;65.74
79077;BME280;68477;42.698;23.342;2023-03-31T02:40:15;95400.06;;;8.58;66.12
79077;BME280;68477;42.698;23.342;2023-03-31T02:42:42;95398.88;;;8.44;65.20
79077;BME280;68477;42.698;23.342;2023-03-31T02:45:45;95402.63;;;8.41;65.30
79077;BME280;68477;42.698;23.342;2023-03-31T02:48:27;95395.66;;;8.06;67.27
79077;BME280;68477;42.698;23.342;2023-03-31T02:51:11;95391.84;;;8.27;68.55
79077;BME280;68477;42.698;23.342;2023-03-31T03:07:47;95347.28;;;8.18;72.63
79077;BME280;68477;42.698;23.342;2023-03-31T03:10:48;95345.88;;;8.06;75.05
79077;BME280;68477;42.698;23.342;2023-03-31T03:16:11;95346.81;;;7.97;73.91
79077;BME280;68477;42.698;23.342;2023-03-31T03:18:51;95327.50;;;7.98;73.18
79077;BME280;68477;42.698;23.342;2023-03-31T03:21:16;95328.09;;;7.92;74.54
79077;BME280;68477;42.698;23.342;2023-03-31T03:23:42;95323.16;;;8.15;72.97
79077;BME280;68477;42.698;23.342;2023-03-31T03:26:08;95333.09;;;8.29;73.10
79077;BME280;68477;42.698;23.342;2023-03-31T03:28:33;95332.34;;;8.45;72.42
79077;BME280;68477;42.698;23.342;2023-03-31T03:30:58;95330.44;;;8.55;72.32
79077;BME280;68477;42.698;23.342;2023-03-31T03:33:24;95326.69;;;8.32;73.44
79077;BME280;68477;42.698;23.342;2023-03-31T03:35:49;95327.66;;;8.57;72.68
79077;BME280;68477;42.698;23.342;2023-03-31T03:38:15;95321.91;;;8.53;71.16
79077;BME280;68477;42.698;23.342;2023-03-31T03:40:40;95315.81;;;8.44;73.81
79077;BME280;68477;42.698;23.342;2023-03-31T03:43:06;95319.78;;;8.57;72.89
79077;BME280;68477;42.698;23.342;2023-03-31T03:45:33;95317.91;;;8.75;73.26
79077;BME280;68477;42.698;23.342;2023-03-31T03:47:58;95310.94;;;8.58;72.76
79077;BME280;68477;42.698;23.342;2023-03-31T03:50:24;95304.59;;;8.68;73.49
79077;BME280;68477;42.698;23.342;2023-03-31T03:52:49;95305.78;;;8.82;71.27
79077;BME280;68477;42.698;23.342;2023-03-31T03:55:15;95296.78;;;8.93;71.27
79077;BME280;68477;42.698;23.342;2023-03-31T03:57:41;95299.09;;;9.04;69.24
79077;BME280;68477;42.698;23.342;2023-03-31T04:00:07;95304.19;;;9.14;66.59
79077;BME280;68477;42.698;23.342;2023-03-31T04:02:37;95302.56;;;9.13;67.31
79077;BME280;68477;42.698;23.342;2023-03-31T04:05:03;95309.63;;;9.28;65.62
79077;BME280;68477;42.698;23.342;2023-03-31T04:07:29;95307.19;;;9.19;67.37
79077;BME280;68477;42.698;23.342;2023-03-31T04:09:56;95311.44;;;9.36;65.15
79077;BME280;68477;42.698;23.342;2023-03-31T04:12:21;95307.84;;;9.37;67.54
79077;BME280;68477;42.698;23.342;2023-03-31T04:14:47;95316.53;;;9.21;67.76
79077;BME280;68477;42.698;23.342;2023-03-31T04:17:12;95328.44;;;8.99;67.27
79077;BME280;68477;42.698;23.342;2023-03-31T04:19:41;95322.06;;;9.02;68.02
79077;BME280;68477;42.698;23.342;2023-03-31T04:22:07;95319.69;;;8.74;69.45
79077;BME280;68477;42.698;23.342;2023-03-31T04:24:36;95323.44;;;8.72;69.34
79077;BME280;68477;42.698;23.342;2023-03-31T04:27:03;95317.00;;;8.58;68.98
79077;BME280;68477;42.698;23.342;2023-03-31T04:29:31;95317.53;;;8.62;69.65
79077;BME280;68477;42.698;23.342;2023-03-31T04:31:57;95323.66;;;8.87;71.10
79077;BME280;68477;42.698;23.342;2023-03-31T04:34:24;95319.38;;;8.78;69.83
79077;BME280;68477;42.698;23.342;2023-03-31T04:36:51;95317.72;;;8.77;69.50
79077;BME280;68477;42.698;23.342;2023-03-31T04:39:20;95312.63;;;8.67;68.40
79077;BME280;68477;42.698;23.342;2023-03-31T04:41:54;95308.09;;;8.85;68.23
79077;BME280;68477;42.698;23.342;2023-03-31T04:44:19;95308.78;;;9.03;66.86
79077;BME280;68477;42.698;23.342;2023-03-31T04:46:45;95297.44;;;8.87;68.55
79077;BME280;68477;42.698;23.342;2023-03-31T04:49:10;95306.00;;;9.13;68.60
79077;BME280;68477;42.698;23.342;2023-03-31T04:51:35;95303.06;;;9.24;65.53
79077;BME280;68477;42.698;23.342;2023-03-31T04:54:01;95295.53;;;9.38;65.80
79077;BME280;68477;42.698;23.342;2023-03-31T04:56:27;95301.13;;;9.18;67.76
79077;BME280;68477;42.698;23.342;2023-03-31T04:58:52;95298.81;;;9.07;68.55
79077;BME280;68477;42.698;23.342;2023-03-31T05:01:18;95300.44;;;9.08;68.80
79077;BME280;68477;42.698;23.342;2023-03-31T05:03:44;95297.28;;;9.04;68.52
79077;BME280;68477;42.698;23.342;2023-03-31T05:06:12;95293.69;;;9.05;67.30
79077;BME280;68477;42.698;23.342;2023-03-31T05:08:38;95291.72;;;9.16;67.92
79077;BME280;68477;42.698;23.342;2023-03-31T05:11:03;95290.44;;;9.20;68.64
79077;BME280;68477;42.698;23.342;2023-03-31T05:13:30;95296.00;;;9.25;68.50
79077;BME280;68477;42.698;23.342;2023-03-31T05:15:55;95284.03;;;9.06;68.07
79077;BME280;68477;42.698;23.342;2023-03-31T05:18:21;95288.78;;;9.11;67.71
79077;BME280;68477;42.698;23.342;2023-03-31T05:20:46;95287.00;;;9.19;68.61
79077;BME280;68477;42.698;23.342;2023-03-31T05:23:12;95286.19;;;9.19;65.75
79077;BME280;68477;42.698;23.342;2023-03-31T05:25:37;95288.94;;;9.17;66.67
79077;BME280;68477;42.698;23.342;2023-03-31T05:28:03;95280.28;;;9.25;67.76
79077;BME280;68477;42.698;23.342;2023-03-31T05:30:29;95274.38;;;9.23;66.89
79077;BME280;68477;42.698;23.342;2023-03-31T05:32:55;95272.91;;;9.20;67.13
79077;BME280;68477;42.698;23.342;2023-03-31T05:35:21;95268.63;;;9.27;67.36
79077;BME280;68477;42.698;23.342;2023-03-31T05:37:47;95268.63;;;9.44;67.64
79077;BME280;68477;42.698;23.342;2023-03-31T05:40:12;95267.16;;;9.33;67.61
79077;BME280;68477;42.698;23.342;2023-03-31T05:42:38;95262.56;;;9.27;68.05
79077;BME280;68477;42.698;23.342;2023-03-31T05:45:04;95266.00;;;9.44;69.87
79077;BME280;68477;42.698;23.342;2023-03-31T05:47:30;95265.53;;;9.40;68.01
79077;BME280;68477;42.698;23.342;2023-03-31T05:49:56;95266.84;;;9.52;67.60
79077;BME280;68477;42.698;23.342;2023-03-31T05:52:22;95264.19;;;9.60;64.50
79077;BME280;68477;42.698;23.342;2023-03-31T05:54:47;95266.97;;;9.67;64.20
79077;BME280;68477;42.698;23.342;2023-03-31T05:57:13;95270.25;;;9.85;64.45
79077;BME280;68477;42.698;23.342;2023-03-31T05:59:38;95276.28;;;9.94;65.55
79077;BME280;68477;42.698;23.342;2023-03-31T06:02:06;95275.78;;;9.99;63.68
79077;BME280;68477;42.698;23.342;2023-03-31T06:04:33;95283.03;;;9.97;63.33
79077;BME280;68477;42.698;23.342;2023-03-31T06:06:59;95282.97;;;10.13;64.43
79077;BME280;68477;42.698;23.342;2023-03-31T06:09:25;95276.09;;;10.04;63.54
79077;BME280;68477;42.698;23.342;2023-03-31T06:11:51;95282.34;;;10.03;62.62
79077;BME280;68477;42.698;23.342;2023-03-31T06:14:16;95287.25;;;10.06;62.74
79077;BME280;68477;42.698;23.342;2023-03-31T06:16:42;95281.47;;;10.18;63.69
79077;BME280;68477;42.698;23.342;2023-03-31T06:19:07;95275.91;;;10.05;62.93
79077;BME280;68477;42.698;23.342;2023-03-31T06:21:33;95269.13;;;10.19;62.82
79077;BME280;68477;42.698;23.342;2023-03-31T06:23:59;95272.72;;;10.42;63.07
79077;BME280;68477;42.698;23.342;2023-03-31T06:26:25;95272.84;;;10.49;61.89
79077;BME280;68477;42.698;23.342;2023-03-31T06:28:54;95267.34;;;10.67;62.39
79077;BME280;68477;42.698;23.342;2023-03-31T06:31:22;95268.50;;;10.95;60.04
79077;BME280;68477;42.698;23.342;2023-03-31T06:33:48;95271.69;;;11.14;60.00
79077;BME280;68477;42.698;23.342;2023-03-31T06:36:16;95256.38;;;11.32;59.08
79077;BME280;68477;42.698;23.342;2023-03-31T06:38:42;95273.00;;;11.32;59.78
79077;BME280;68477;42.698;23.342;2023-03-31T06:41:10;95262.19;;;11.50;59.36
79077;BME280;68477;42.698;23.342;2023-03-31T06:43:36;95265.19;;;11.62;57.40
79077;BME280;68477;42.698;23.342;2023-03-31T06:46:02;95270.41;;;12.37;56.29
79077;BME280;68477;42.698;23.342;2023-03-31T06:48:27;95282.31;;;12.48;54.82
79077;BME280;68477;42.698;23.342;2023-03-31T06:50:54;95272.66;;;12.40;54.66
79077;BME280;68477;42.698;23.342;2023-03-31T06:53:21;95276.75;;;12.43;53.82
79077;BME280;68477;42.698;23.342;2023-03-31T06:55:47;95276.84;;;12.20;53.25
79077;BME280;68477;42.698;23.342;2023-03-31T06:58:13;95266.38;;;12.41;54.56
79077;BME280;68477;42.698;23.342;2023-03-31T07:00:39;95272.94;;;12.45;54.29
79077;BME280;68477;42.698;23.342;2023-03-31T07:03:05;95268.28;;;12.62;52.61
79077;BME280;68477;42.698;23.342;2023-03-31T07:05:31;95262.13;;;13.12;45.90
79077;BME280;68477;42.698;23.342;2023-03-31T07:07:58;95248.03;;;12.84;50.79
79077;BME280;68477;42.698;23.342;2023-03-31T07:10:25;95234.09;;;12.90;52.47
79077;BME280;68477;42.698;23.342;2023-03-31T07:12:51;95224.56;;;13.53;45.21
79077;BME280;68477;42.698;23.342;2023-03-31T07:15:17;95222.03;;;13.94;42.28
79077;BME280;68477;42.698;23.342;2023-03-31T07:17:43;95212.88;;;14.32;42.13
79077;BME280;68477;42.698;23.342;2023-03-31T07:20:10;95208.16;;;14.62;40.15
79077;BME280;68477;42.698;23.342;2023-03-31T07:22:40;95200.84;;;14.70;40.65
79077;BME280;68477;42.698;23.342;2023-03-31T07:25:07;95210.09;;;15.01;41.05
79077;BME280;68477;42.698;23.342;2023-03-31T07:27:32;95205.66;;;15.21;39.79
79077;BME280;68477;42.698;23.342;2023-03-31T07:29:58;95202.41;;;15.59;39.79
79077;BME280;68477;42.698;23.342;2023-03-31T07:32:23;95214.69;;;15.66;40.08
79077;BME280;68477;42.698;23.342;2023-03-31T07:34:49;95206.06;;;15.38;40.67
79077;BME280;68477;42.698;23.342;2023-03-31T07:37:15;95207.72;;;15.59;40.22
79077;BME280;68477;42.698;23.342;2023-03-31T07:39:40;95203.41;;;15.51;39.01
79077;BME280;68477;42.698;23.342;2023-03-31T07:42:08;95207.91;;;15.44;39.00
79077;BME280;68477;42.698;23.342;2023-03-31T07:44:35;95198.34;;;15.43;38.75
79077;BME280;68477;42.698;23.342;2023-03-31T07:47:00;95202.84;;;15.76;38.04
79077;BME280;68477;42.698;23.342;2023-03-31T07:49:29;95202.22;;;15.87;38.07
79077;BME280;68477;42.698;23.342;2023-03-31T07:51:55;95201.09;;;16.34;37.57
79077;BME280;68477;42.698;23.342;2023-03-31T07:54:22;95207.56;;;16.58;36.66
79077;BME280;68477;42.698;23.342;2023-03-31T07:56:47;95208.34;;;16.72;37.27
79077;BME280;68477;42.698;23.342;2023-03-31T07:59:13;95204.56;;;16.93;35.77
79077;BME280;68477;42.698;23.342;2023-03-31T08:01:38;95211.69;;;17.30;37.01
79077;BME280;68477;42.698;23.342;2023-03-31T08:04:04;95201.91;;;16.93;36.03
79077;BME280;68477;42.698;23.342;2023-03-31T08:06:29;95200.88;;;16.42;36.90
79077;BME280;68477;42.698;23.342;2023-03-31T08:08:56;95199.84;;;16.43;36.56
79077;BME280;68477;42.698;23.342;2023-03-31T08:11:22;95189.53;;;16.09;37.19
79077;BME280;68477;42.698;23.342;2023-03-31T08:13:49;95188.13;;;15.99;37.46
79077;BME280;68477;42.698;23.342;2023-03-31T08:16:15;95181.22;;;15.65;37.26
79077;BME280;68477;42.698;23.342;2023-03-31T08:18:41;95189.97;;;15.46;38.20
79077;BME280;68477;42.698;23.342;2023-03-31T08:21:07;95176.09;;;15.51;37.57
79077;BME280;68477;42.698;23.342;2023-03-31T08:23:34;95174.25;;;15.11;39.55
79077;BME280;68477;42.698;23.342;2023-03-31T08:26:14;95178.56;;;15.19;38.35
79077;BME280;68477;42.698;23.342;2023-03-31T08:28:42;95185.25;;;15.94;37.01
79077;BME280;68477;42.698;23.342;2023-03-31T08:31:08;95175.00;;;16.18;36.95
79077;BME280;68477;42.698;23.342;2023-03-31T08:33:35;95176.97;;;16.42;35.41
79077;BME280;68477;42.698;23.342;2023-03-31T08:36:03;95166.50;;;16.99;36.80
79077;BME280;68477;42.698;23.342;2023-03-31T08:38:29;95161.97;;;16.61;35.43
79077;BME280;68477;42.698;23.342;2023-03-31T08:41:00;95166.13;;;17.27;34.91
79077;BME280;68477;42.698;23.342;2023-03-31T08:43:32;95171.75;;;17.12;36.97
79077;BME280;68477;42.698;23.342;2023-03-31T08:46:00;95170.44;;;16.38;36.21
79077;BME280;68477;42.698;23.342;2023-03-31T08:48:35;95170.13;;;16.73;34.93
79077;BME280;68477;42.698;23.342;2023-03-31T08:51:20;95174.59;;;16.21;36.04
79077;BME280;68477;42.698;23.342;2023-03-31T08:53:58;95163.63;;;16.04;36.12
79077;BME280;68477;42.698;23.342;2023-03-31T08:56:25;95160.81;;;15.86;36.14
79077;BME280;68477;42.698;23.342;2023-03-31T08:58:52;95146.94;;;15.57;37.52
79077;BME280;68477;42.698;23.342;2023-03-31T09:13:07;95129.34;;;16.54;35.16
79077;BME280;68477;42.698;23.342;2023-03-31T09:15:59;95124.47;;;17.89;34.60
79077;BME280;68477;42.698;23.342;2023-03-31T09:18:31;95126.63;;;18.35;33.00
79077;BME280;68477;42.698;23.342;2023-03-31T09:23:42;95133.38;;;18.01;31.84
79077;BME280;68477;42.698;23.342;2023-03-31T09:26:31;95126.94;;;17.90;32.46
79077;BME280;68477;42.698;23.342;2023-03-31T09:28:59;95130.63;;;18.26;31.48
79077;BME280;68477;42.698;23.342;2023-03-31T09:31:27;95133.53;;;18.24;31.06
79077;BME280;68477;42.698;23.342;2023-03-31T09:33:59;95134.41;;;18.18;32.02
79077;BME280;68477;42.698;23.342;2023-03-31T09:36:26;95134.38;;;18.00;32.81
79077;BME280;68477;42.698;23.342;2023-03-31T09:38:51;95123.06;;;17.86;30.98
79077;BME280;68477;42.698;23.342;2023-03-31T09:41:17;95123.63;;;18.13;31.96
79077;BME280;68477;42.698;23.342;2023-03-31T09:43:44;95120.34;;;18.11;31.97
79077;BME280;68477;42.698;23.342;2023-03-31T09:46:30;95116.84;;;18.96;29.72
79077;BME280;68477;42.698;23.342;2023-03-31T09:49:01;95127.41;;;19.14;29.48
79077;BME280;68477;42.698;23.342;2023-03-31T09:51:33;95116.66;;;18.79;29.86
79077;BME280;68477;42.698;23.342;2023-03-31T09:59:32;95105.28;;;19.13;30.48
79077;BME280;68477;42.698;23.342;2023-03-31T10:02:04;95115.59;;;19.10;30.36
79077;BME280;68477;42.698;23.342;2023-03-31T10:04:44;95102.91;;;18.63;31.18
79077;BME280;68477;42.698;23.342;2023-03-31T10:07:11;95098.06;;;18.42;30.86
79077;BME280;68477;42.698;23.342;2023-03-31T10:09:37;95090.25;;;18.29;31.20
79077;BME280;68477;42.698;23.342;2023-03-31T10:12:05;95088.09;;;18.19;32.13
79077;BME280;68477;42.698;23.342;2023-03-31T10:14:39;95088.97;;;18.31;31.77
79077;BME280;68477;42.698;23.342;2023-03-31T10:17:05;95087.50;;;18.17;31.62
79077;BME280;68477;42.698;23.342;2023-03-31T10:19:35;95080.44;;;19.01;30.60
79077;BME280;68477;42.698;23.342;2023-03-31T10:22:14;95076.13;;;19.65;30.85
79077;BME280;68477;42.698;23.342;2023-03-31T10:24:42;95078.94;;;20.22;29.40
79077;BME280;68477;42.698;23.342;2023-03-31T10:27:27;95074.75;;;19.74;28.56
79077;BME280;68477;42.698;23.342;2023-03-31T10:29:58;95074.03;;;19.67;29.26
79077;BME280;68477;42.698;23.342;2023-03-31T10:32:25;95073.09;;;19.97;29.11
79077;BME280;68477;42.698;23.342;2023-03-31T10:34:54;95064.75;;;19.93;29.61
79077;BME280;68477;42.698;23.342;2023-03-31T10:37:29;95058.06;;;20.19;27.83
79077;BME280;68477;42.698;23.342;2023-03-31T10:42:45;95052.31;;;19.40;30.22
79077;BME280;68477;42.698;23.342;2023-03-31T10:45:26;95048.94;;;19.33;30.56
79077;BME280;68477;42.698;23.342;2023-03-31T10:47:54;95053.38;;;18.44;32.88
79077;BME280;68477;42.698;23.342;2023-03-31T10:50:29;95056.41;;;18.48;32.06
79077;BME280;68477;42.698;23.342;2023-03-31T10:53:04;95048.13;;;19.21;31.40
79077;BME280;68477;42.698;23.342;2023-03-31T10:55:49;95041.66;;;19.29;31.69
79077;BME280;68477;42.698;23.342;2023-03-31T10:58:31;95048.44;;;19.01;31.52
79077;BME280;68477;42.698;23.342;2023-03-31T11:03:53;95045.66;;;18.84;31.63
79077;BME280;68477;42.698;23.342;2023-03-31T11:06:25;95041.38;;;18.95;33.37
79077;BME280;68477;42.698;23.342;2023-03-31T11:11:59;95027.66;;;18.38;32.67
79077;BME280;68477;42.698;23.342;2023-03-31T11:14:39;95034.34;;;18.11;32.79
79077;BME280;68477;42.698;23.342;2023-03-31T11:25:36;95008.19;;;17.89;33.82
79077;BME280;68477;42.698;23.342;2023-03-31T11:30:57;95000.06;;;18.32;32.36
79077;BME280;68477;42.698;23.342;2023-03-31T11:36:19;95005.22;;;18.87;32.12
79077;BME280;68477;42.698;23.342;2023-03-31T11:41:53;94991.31;;;19.32;32.64
79077;BME280;68477;42.698;23.342;2023-03-31T11:44:24;94986.69;;;19.16;32.97
79077;BME280;68477;42.698;23.342;2023-03-31T11:46:57;94986.88;;;19.85;31.47
79077;BME280;68477;42.698;23.342;2023-03-31T11:49:28;94989.69;;;19.55;30.86
79077;BME280;68477;42.698;23.342;2023-03-31T11:52:05;94991.09;;;19.57;30.12
79077;BME280;68477;42.698;23.342;2023-03-31T11:54:52;94976.94;;;19.45;31.41
79077;BME280;68477;42.698;23.342;2023-03-31T12:00:30;94964.56;;;19.04;31.01
79077;BME280;68477;42.698;23.342;2023-03-31T12:05:45;94956.03;;;19.77;30.01
79077;BME280;68477;42.698;23.342;2023-03-31T12:08:27;94955.25;;;20.05;30.66
79077;BME280;68477;42.698;23.342;2023-03-31T12:10:58;94946.19;;;20.06;29.51
79077;BME280;68477;42.698;23.342;2023-03-31T12:16:21;94948.53;;;20.48;28.56
79077;BME280;68477;42.698;23.342;2023-03-31T12:21:28;94935.47;;;20.63;29.00
79077;BME280;68477;42.698;23.342;2023-03-31T12:23:55;94935.91;;;20.15;29.09
79077;BME280;68477;42.698;23.342;2023-03-31T12:28:57;94926.13;;;19.92;29.66
79077;BME280;68477;42.698;23.342;2023-03-31T12:31:27;94928.50;;;20.17;30.91
79077;BME280;68477;42.698;23.342;2023-03-31T12:33:58;94924.22;;;20.04;29.55
79077;BME280;68477;42.698;23.342;2023-03-31T12:36:56;94919.72;;;19.76;29.31
79077;BME280;68477;42.698;23.342;2023-03-31T12:43:18;94920.09;;;21.26;28.69
79077;BME280;68477;42.698;23.342;2023-03-31T12:48:32;94906.50;;;22.20;25.51
79077;BME280;68477;42.698;23.342;2023-03-31T12:56:18;94897.06;;;22.39;25.33
79077;BME280;68477;42.698;23.342;2023-03-31T12:58:44;94880.94;;;22.07;26.44
79077;BME280;68477;42.698;23.342;2023-03-31T13:01:23;94881.41;;;22.26;25.74
79077;BME280;68477;42.698;23.342;2023-03-31T13:08:58;94859.97;;;22.58;26.03
79077;BME280;68477;42.698;23.342;2023-03-31T13:14:04;94852.09;;;22.46;25.76
79077;BME280;68477;42.698;23.342;2023-03-31T13:16:33;94848.97;;;22.27;25.34
79077;BME280;68477;42.698;23.342;2023-03-31T13:19:01;94834.94;;;22.15;25.84
79077;BME280;68477;42.698;23.342;2023-03-31T13:21:26;94824.81;;;21.95;25.74
79077;BME280;68477;42.698;23.342;2023-03-31T13:23:52;94814.22;;;22.37;25.98
79077;BME280;68477;42.698;23.342;2023-03-31T13:34:34;94793.69;;;22.48;25.63
79077;BME280;68477;42.698;23.342;2023-03-31T13:53:37;94744.25;;;21.70;27.56
79077;BME280;68477;42.698;23.342;2023-03-31T14:07:19;94739.31;;;21.57;27.11
79077;BME280;68477;42.698;23.342;2023-03-31T14:09:46;94741.31;;;21.71;26.82
79077;BME280;68477;42.698;23.342;2023-03-31T14:14:46;94735.44;;;21.42;26.86
79077;BME280;68477;42.698;23.342;2023-03-31T14:17:13;94732.25;;;21.45;27.84
79077;BME280;68477;42.698;23.342;2023-03-31T14:37:02;94718.00;;;21.40;27.28
79077;BME280;68477;42.698;23.342;2023-03-31T14:39:41;94715.59;;;21.38;28.52
79077;BME280;68477;42.698;23.342;2023-03-31T14:42:13;94704.31;;;21.09;28.19
79077;BME280;68477;42.698;23.342;2023-03-31T14:44:40;94704.56;;;21.08;28.74
79077;BME280;68477;42.698;23.342;2023-03-31T14:47:21;94689.09;;;20.66;29.26
79077;BME280;68477;42.698;23.342;2023-03-31T14:49:58;94694.59;;;20.81;28.40
79077;BME280;68477;42.698;23.342;2023-03-31T14:52:23;94693.25;;;20.57;28.69
79077;BME280;68477;42.698;23.342;2023-03-31T14:54:51;94693.88;;;20.64;28.39
79077;BME280;68477;42.698;23.342;2023-03-31T14:57:19;94685.75;;;20.76;29.14
79077;BME280;68477;42.698;23.342;2023-03-31T14:59:50;94680.34;;;20.32;30.27
79077;BME280;68477;42.698;23.342;2023-03-31T15:02:19;94687.66;;;20.03;29.42
79077;BME280;68477;42.698;23.342;2023-03-31T15:04:48;94686.59;;;20.04;30.50
79077;BME280;68477;42.698;23.342;2023-03-31T15:07:15;94679.03;;;19.96;30.42
79077;BME280;68477;42.698;23.342;2023-03-31T15:09:48;94674.91;;;19.88;31.05
79077;BME280;68477;42.698;23.342;2023-03-31T15:12:16;94683.00;;;19.60;30.62
79077;BME280;68477;42.698;23.342;2023-03-31T15:14:51;94686.16;;;19.73;30.03
79077;BME280;68477;42.698;23.342;2023-03-31T15:17:22;94680.94;;;19.50;31.08
79077;BME280;68477;42.698;23.342;2023-03-31T15:19:52;94685.44;;;19.61;31.00
79077;BME280;68477;42.698;23.342;2023-03-31T15:22:22;94684.00;;;19.42;31.22
79077;BME280;68477;42.698;23.342;2023-03-31T15:24:48;94689.94;;;19.15;30.95
79077;BME280;68477;42.698;23.342;2023-03-31T15:27:45;94685.88;;;19.13;31.67
79077;BME280;68477;42.698;23.342;2023-03-31T15:30:16;94680.56;;;19.13;31.78
79077;BME280;68477;42.698;23.342;2023-03-31T15:32:43;94684.00;;;18.97;30.77
79077;BME280;68477;42.698;23.342;2023-03-31T15:35:38;94677.06;;;18.44;32.97
79077;BME280;68477;42.698;23.342;2023-03-31T15:38:11;94672.91;;;18.88;31.58
79077;BME280;68477;42.698;23.342;2023-03-31T15:40:40;94675.94;;;18.80;31.72
79077;BME280;68477;42.698;23.342;2023-03-31T15:43:28;94675.81;;;18.86;31.15
79077;BME280;68477;42.698;23.342;2023-03-31T15:45:59;94675.13;;;18.79;32.36
79077;BME280;68477;42.698;23.342;2023-03-31T15:48:36;94671.44;;;18.69;32.37
79077;BME280;68477;42.698;23.342;2023-03-31T15:51:19;94672.91;;;18.36;32.49
79077;BME280;68477;42.698;23.342;2023-03-31T15:53:50;94673.94;;;18.47;34.47
79077;BME280;68477;42.698;23.342;2023-03-31T16:01:22;94665.94;;;18.47;33.71
79077;BME280;68477;42.698;23.342;2023-03-31T16:03:52;94669.50;;;18.52;33.83
79077;BME280;68477;42.698;23.342;2023-03-31T16:06:23;94667.66;;;18.53;33.79
79077;BME280;68477;42.698;23.342;2023-03-31T16:09:08;94667.81;;;18.23;33.73
79077;BME280;68477;42.698;23.342;2023-03-31T16:11:58;94663.56;;;17.87;34.64
79077;BME280;68477;42.698;23.342;2023-03-31T16:14:32;94663.69;;;18.15;35.11
79077;BME280;68477;42.698;23.342;2023-03-31T16:17:01;94664.84;;;18.19;34.37
79077;BME280;68477;42.698;23.342;2023-03-31T16:19:30;94656.03;;;18.19;34.45
79077;BME280;68477;42.698;23.342;2023-03-31T16:22:02;94655.25;;;17.83;35.51